Owensboro-Daviess County Regional (OWB)

 

Airport Diagram
Current Weather/Forecast (IFR Conditions)
METAR KOWB 232356Z 33016G20KT 6SM -RA BR OVC007 12/12 A3007 RMK AO2 PK WND 31027/2313 LTG DSNT E TSE23 SLP181 P0008 60026 T01170117 10272 20117 53038
TAF KOWB 232348Z 2400/2424 32015G25KT P6SM OVC007 TEMPO 2400/2404 5SM -SHRA BR SCT007 OVC015 FM240600 36012KT P6SM OVC015 FM241400 03010KT P6SM BKN020 FM241800 04008KT P6SM BKN025

Airport Information

All Charts
General
Chart Name View
AIRPORT DIAGRAM
AIRPORT DIAGRAM
TAKEOFF MINIMUMS
ALTERNATE MINIMUMS
TAKEOFF MINIMUMS
ALTERNATE MINIMUMS
HOT SPOT
HOT SPOT

Approaches
Chart Name Download
ILS OR LOC RWY 36
RNAV (GPS) RWY 06
RNAV (GPS) RWY 18
RNAV (GPS) RWY 24
RNAV (GPS) RWY 36
VOR RWY 06
VOR RWY 18
VOR RWY 36
ILS OR LOC RWY 36
RNAV (GPS) RWY 06
RNAV (GPS) RWY 18
RNAV (GPS) RWY 24
RNAV (GPS) RWY 36
VOR RWY 06
VOR RWY 18
VOR RWY 36


Airport Statistics
Departures Arrivals Local
All Collected Stats since June 2016: 34 37 0
2020 Stats: 19 21 0
October Stats: 0 0 0

Inbound Traffic (Arrivals) - 0

No inbound traffic.


Outbound Traffic (Departures) - 0

No outbound traffic.


Local Traffic (Pattern) - 0

No local traffic.